KVLD/VLD METAR and TAF weather

Enter ICAO airport designator
Station Type Date Time Source
KVLD METAR 2021/03/01 22:31 UTC NOAA

KVLD 012231Z 02009KT 3SM +RA BKN039 BKN050 OVC070 19/16 A3005 RMK AO2 RAB2155 P0014 T01890156


Station Type Date Time Source
KVLD Decoded METAR 2021/03/01 22:31 UTC NOAA

VALDOSTA REGIONAL AIRPORT, GA, United States (KVLD) 30-47N 083-16W
Mar 01, 2021 - 05:31 PM EST / 2021.03.01 2231 UTC
Wind: from the NNE (020 degrees) at 10 MPH (9 KT):0
Visibility: 3 mile(s):0
Sky conditions: overcast
Weather: heavy rain
Precipitation last hour: 0.14 inches
Temperature: 66.0 F (18.9 C)
Dew Point: 60.1 F (15.6 C)
Relative Humidity: 81%
Pressure (altimeter): 30.05 in. Hg (1017 hPa)
ob: KVLD 012231Z 02009KT 3SM +RA BKN039 BKN050 OVC070 19/16 A3005 RMK AO2 RAB2155 P0014 T01890156
cycle: 22

Station Type Date Time Source
KVLD TAF 2021/03/01 22:59 UTC NOAA

TAF
AMD KVLD 012159Z 0122/0218 36010KT P6SM VCSH BKN040 OVC060
TEMPO 0122/0202 4SM SHRA
FM021200 05010KT 4SM -RA OVC015

Example: see airport list